Time;durP1;ratioP1;P1;durP2;ratioP2;P2;SDS_P1;SDS_P2;PMS_P1;PMS_P2;Temp;Humidity;BMP_temperature;BMP_pressure;BME280_temperature;BME280_humidity;BME280_pressure;Samples;Min_cycle;Max_cycle;Signal;HPM_P1;HPM_P2
2022/08/20 00:02:17;;;;;;;21.75;4.70;;;;;;;;;;5040799;28;20029;-82
2022/08/20 00:04:43;;;;;;;17.13;4.00;;;;;;;;;;5043884;28;20532;-83
2022/08/20 00:07:08;;;;;;;16.38;3.90;;;;;;;;;;5046641;28;20021;-83
2022/08/20 00:09:33;;;;;;;19.38;4.15;;;;;;;;;;5047018;28;21699;-80
2022/08/20 00:12:00;;;;;;;15.82;4.07;;;;;;;;;;5048521;28;20052;-78
2022/08/20 00:14:25;;;;;;;14.18;3.80;;;;;;;;;;5034192;28;20114;-79
2022/08/20 00:16:51;;;;;;;18.92;3.97;;;;;;;;;;5045308;28;20048;-81
2022/08/20 00:19:17;;;;;;;10.50;3.70;;;;;;;;;;5034722;28;20112;-82
2022/08/20 00:21:42;;;;;;;15.05;3.53;;;;;;;;;;5036262;28;20107;-82
2022/08/20 00:24:07;;;;;;;17.50;3.80;;;;;;;;;;5046276;28;20444;-82
2022/08/20 00:26:33;;;;;;;12.48;3.65;;;;;;;;;;5036786;28;20036;-82
2022/08/20 00:28:58;;;;;;;21.42;4.70;;;;;;;;;;5035827;28;20030;-82
2022/08/20 00:31:24;;;;;;;13.82;3.95;;;;;;;;;;5035752;28;20032;-80
2022/08/20 00:33:49;;;;;;;15.00;3.67;;;;;;;;;;5035732;28;20067;-83
2022/08/20 00:36:16;;;;;;;19.27;3.40;;;;;;;;;;5041134;28;20116;-80
2022/08/20 00:38:42;;;;;;;13.05;3.22;;;;;;;;;;5034510;28;20532;-78
2022/08/20 00:41:10;;;;;;;14.43;3.38;;;;;;;;;;5038648;28;20036;-80
2022/08/20 00:43:42;;;;;;;18.30;3.63;;;;;;;;;;5045014;28;20030;-82
2022/08/20 00:46:10;;;;;;;10.23;3.97;;;;;;;;;;5040437;28;20499;-81
2022/08/20 00:48:38;;;;;;;11.93;3.42;;;;;;;;;;5036840;28;20112;-79
2022/08/20 00:51:21;;;;;;;21.02;4.22;;;;;;;;;;5044129;28;20045;-79
2022/08/20 00:53:46;;;;;;;17.27;3.43;;;;;;;;;;5044523;28;20065;-78
2022/08/20 00:56:12;;;;;;;14.02;3.75;;;;;;;;;;5036562;28;20309;-76
2022/08/20 00:58:38;;;;;;;13.55;3.45;;;;;;;;;;5045209;28;20021;-76
2022/08/20 01:01:04;;;;;;;14.10;3.60;;;;;;;;;;5042367;28;20025;-76
2022/08/20 01:03:30;;;;;;;14.98;3.45;;;;;;;;;;5042734;28;20083;-77
2022/08/20 01:05:55;;;;;;;10.00;3.50;;;;;;;;;;5041112;28;20018;-78
2022/08/20 01:08:22;;;;;;;14.38;3.20;;;;;;;;;;5036305;28;20370;-76
2022/08/20 01:10:48;;;;;;;11.45;3.60;;;;;;;;;;5047744;28;20037;-76
2022/08/20 01:13:16;;;;;;;9.40;3.35;;;;;;;;;;5047515;28;20025;-76
2022/08/20 01:15:42;;;;;;;12.13;3.67;;;;;;;;;;5038574;28;20374;-77
2022/08/20 01:18:10;;;;;;;12.60;3.50;;;;;;;;;;5034108;28;20046;-77
2022/08/20 01:20:38;;;;;;;11.43;3.28;;;;;;;;;;5048564;28;20484;-78
2022/08/20 01:23:31;;;;;;;13.82;3.58;;;;;;;;;;5040822;28;20050;-82
2022/08/20 01:26:11;;;;;;;16.30;3.45;;;;;;;;;;5041184;28;20029;-78
2022/08/20 01:28:57;;;;;;;12.00;2.95;;;;;;;;;;5035437;28;20108;-78
2022/08/20 01:31:28;;;;;;;15.00;3.20;;;;;;;;;;5034905;28;20034;-81
2022/08/20 01:33:55;;;;;;;13.80;3.10;;;;;;;;;;5034106;28;20428;-82
2022/08/20 01:36:22;;;;;;;16.67;3.55;;;;;;;;;;5041559;28;20041;-78
2022/08/20 01:38:48;;;;;;;18.58;3.75;;;;;;;;;;5049431;28;20095;-78
2022/08/20 01:41:28;;;;;;;10.60;2.90;;;;;;;;;;5039408;28;20457;-78
2022/08/20 01:43:56;;;;;;;15.90;3.25;;;;;;;;;;5039671;28;20029;-78
2022/08/20 01:46:34;;;;;;;17.77;3.80;;;;;;;;;;5046786;28;20028;-78
2022/08/20 01:49:05;;;;;;;12.43;3.22;;;;;;;;;;5043055;28;20048;-81
2022/08/20 01:51:31;;;;;;;12.30;3.53;;;;;;;;;;5055465;28;20060;-80
2022/08/20 01:53:58;;;;;;;16.77;3.40;;;;;;;;;;5037472;28;20103;-81
2022/08/20 01:56:26;;;;;;;13.25;3.47;;;;;;;;;;5037484;28;20014;-78
2022/08/20 01:58:53;;;;;;;23.88;3.53;;;;;;;;;;5050845;28;20082;-78
2022/08/20 02:01:41;;;;;;;16.33;3.58;;;;;;;;;;5046240;28;20029;-78
2022/08/20 02:04:08;;;;;;;13.98;3.65;;;;;;;;;;5042273;28;20036;-81
2022/08/20 02:06:35;;;;;;;12.57;3.17;;;;;;;;;;5045204;28;20045;-81
2022/08/20 02:09:01;;;;;;;19.58;3.83;;;;;;;;;;5042686;28;20469;-81
2022/08/20 02:11:27;;;;;;;17.73;3.75;;;;;;;;;;5044517;28;20033;-82
2022/08/20 02:13:53;;;;;;;11.63;3.17;;;;;;;;;;5044742;28;20043;-80
2022/08/20 02:16:23;;;;;;;17.15;3.28;;;;;;;;;;5046278;28;20025;-80
2022/08/20 02:18:53;;;;;;;10.38;2.97;;;;;;;;;;5040822;28;20028;-80
2022/08/20 02:21:18;;;;;;;15.57;3.70;;;;;;;;;;5047755;28;20033;-80
2022/08/20 02:23:43;;;;;;;11.52;3.17;;;;;;;;;;5047950;28;20060;-80
2022/08/20 02:26:09;;;;;;;19.88;3.80;;;;;;;;;;5052623;28;20033;-80
2022/08/20 02:28:34;;;;;;;11.05;3.33;;;;;;;;;;5036792;28;20109;-81
2022/08/20 02:31:01;;;;;;;14.82;3.40;;;;;;;;;;5042481;28;20527;-80
2022/08/20 02:33:27;;;;;;;10.43;2.70;;;;;;;;;;5046301;28;20028;-80
2022/08/20 02:35:55;;;;;;;10.98;3.25;;;;;;;;;;5052030;28;20044;-80
2022/08/20 02:38:20;;;;;;;10.40;3.40;;;;;;;;;;5045815;28;20022;-79
2022/08/20 02:40:47;;;;;;;16.00;3.70;;;;;;;;;;5039157;28;20048;-80
2022/08/20 02:43:13;;;;;;;13.65;3.47;;;;;;;;;;5037407;28;20115;-79
2022/08/20 02:45:42;;;;;;;12.57;3.00;;;;;;;;;;5040713;28;20103;-78
2022/08/20 02:48:09;;;;;;;11.00;3.15;;;;;;;;;;5036450;28;20037;-78
2022/08/20 02:50:34;;;;;;;11.15;2.85;;;;;;;;;;5050842;28;20029;-81
2022/08/20 02:52:59;;;;;;;10.80;2.97;;;;;;;;;;5036654;28;20036;-81
2022/08/20 02:55:25;;;;;;;13.43;3.17;;;;;;;;;;5045380;28;20025;-80
2022/08/20 02:57:51;;;;;;;11.45;3.10;;;;;;;;;;5043242;28;20037;-79
2022/08/20 03:00:18;;;;;;;21.13;3.45;;;;;;;;;;5051324;28;20033;-79
2022/08/20 03:02:44;;;;;;;10.65;3.63;;;;;;;;;;5039299;28;20107;-79
2022/08/20 03:05:10;;;;;;;11.95;3.50;;;;;;;;;;5045504;28;20056;-80
2022/08/20 03:07:45;;;;;;;12.55;3.30;;;;;;;;;;5041903;28;20021;-79
2022/08/20 03:10:11;;;;;;;10.98;2.83;;;;;;;;;;5037353;28;20507;-78
2022/08/20 03:12:37;;;;;;;12.35;2.97;;;;;;;;;;5047923;28;20108;-77
2022/08/20 03:15:03;;;;;;;15.18;3.28;;;;;;;;;;5050570;28;20116;-76
2022/08/20 03:17:28;;;;;;;14.45;3.40;;;;;;;;;;5051537;28;20135;-76
2022/08/20 03:19:53;;;;;;;16.50;3.50;;;;;;;;;;5037933;28;20128;-77
2022/08/20 03:22:19;;;;;;;11.48;2.65;;;;;;;;;;5041203;28;20037;-76
2022/08/20 03:24:44;;;;;;;16.73;3.20;;;;;;;;;;5040540;28;20453;-78
2022/08/20 03:27:11;;;;;;;17.48;2.75;;;;;;;;;;5048404;28;20460;-78
2022/08/20 03:29:36;;;;;;;13.43;2.72;;;;;;;;;;5047679;28;20041;-78
2022/08/20 03:32:02;;;;;;;11.70;3.28;;;;;;;;;;5038123;28;20566;-78
2022/08/20 03:34:27;;;;;;;14.43;2.88;;;;;;;;;;5041747;28;20037;-78
2022/08/20 03:36:52;;;;;;;9.25;2.58;;;;;;;;;;5048576;28;20017;-80
2022/08/20 03:39:18;;;;;;;11.45;2.92;;;;;;;;;;5034114;28;20079;-81
2022/08/20 03:41:43;;;;;;;10.00;2.85;;;;;;;;;;5041218;28;20048;-78
2022/08/20 03:44:09;;;;;;;10.23;2.95;;;;;;;;;;5034668;28;20025;-78
2022/08/20 03:46:34;;;;;;;12.52;3.13;;;;;;;;;;5041161;28;20030;-77
2022/08/20 03:49:00;;;;;;;17.40;3.08;;;;;;;;;;5035514;28;20477;-76
2022/08/20 03:51:25;;;;;;;13.77;3.15;;;;;;;;;;5040097;28;20095;-75
2022/08/20 03:53:50;;;;;;;16.38;3.08;;;;;;;;;;5048070;28;20029;-75
2022/08/20 03:56:16;;;;;;;14.60;3.33;;;;;;;;;;5047213;28;20061;-76
2022/08/20 03:58:42;;;;;;;22.30;3.30;;;;;;;;;;5035373;28;20350;-76
2022/08/20 04:01:07;;;;;;;15.00;4.95;;;;;;;;;;5047757;28;20108;-75
2022/08/20 04:03:32;;;;;;;10.73;3.53;;;;;;;;;;5035049;28;20044;-76
2022/08/20 04:05:58;;;;;;;13.00;3.88;;;;;;;;;;5039311;28;20025;-76
2022/08/20 04:08:28;;;;;;;18.73;4.30;;;;;;;;;;5040524;28;20469;-75
2022/08/20 04:10:56;;;;;;;14.82;3.63;;;;;;;;;;5041280;28;20090;-76
2022/08/20 04:13:22;;;;;;;25.15;4.20;;;;;;;;;;5036270;28;20017;-75
2022/08/20 04:15:47;;;;;;;15.65;3.60;;;;;;;;;;5040479;28;20100;-76
2022/08/20 04:18:13;;;;;;;12.60;3.45;;;;;;;;;;5037660;28;20068;-75
2022/08/20 04:20:40;;;;;;;15.55;3.80;;;;;;;;;;5039376;28;20079;-75
2022/08/20 04:23:07;;;;;;;17.55;4.35;;;;;;;;;;5040101;28;20056;-75
2022/08/20 04:25:33;;;;;;;9.95;3.97;;;;;;;;;;5043706;28;20053;-75
2022/08/20 04:27:59;;;;;;;13.98;4.43;;;;;;;;;;5042528;28;20017;-76
2022/08/20 04:30:25;;;;;;;9.95;3.22;;;;;;;;;;5048030;28;20025;-75
2022/08/20 04:32:50;;;;;;;14.00;3.35;;;;;;;;;;5038481;28;20033;-76
2022/08/20 04:35:19;;;;;;;11.95;3.00;;;;;;;;;;5048561;28;20021;-75
2022/08/20 04:37:45;;;;;;;9.55;3.17;;;;;;;;;;5041051;28;20045;-75
2022/08/20 04:42:57;;;;;;;12.23;3.10;;;;;;;;;;5026166;28;20049;-76
2022/08/20 04:45:23;;;;;;;13.90;3.35;;;;;;;;;;5037504;28;20037;-76
2022/08/20 04:47:48;;;;;;;11.88;3.20;;;;;;;;;;5038526;28;20075;-75
2022/08/20 04:50:14;;;;;;;9.60;3.17;;;;;;;;;;5038888;28;20021;-75
2022/08/20 04:52:39;;;;;;;12.07;3.10;;;;;;;;;;5045841;28;20040;-75
2022/08/20 04:55:05;;;;;;;10.45;3.05;;;;;;;;;;5045636;28;20045;-75
2022/08/20 04:57:31;;;;;;;8.90;2.90;;;;;;;;;;5045037;28;20025;-75
2022/08/20 04:59:57;;;;;;;7.90;2.58;;;;;;;;;;5047315;28;20063;-76
2022/08/20 05:02:22;;;;;;;11.20;3.10;;;;;;;;;;5035848;28;20084;-75
2022/08/20 05:04:47;;;;;;;8.02;2.65;;;;;;;;;;5034259;28;20025;-76
2022/08/20 05:07:14;;;;;;;9.48;2.67;;;;;;;;;;5044899;28;20060;-75
2022/08/20 05:09:40;;;;;;;8.45;2.70;;;;;;;;;;5036530;28;20111;-76
2022/08/20 05:12:06;;;;;;;10.88;3.17;;;;;;;;;;5045427;28;20045;-75
2022/08/20 05:14:31;;;;;;;8.68;3.25;;;;;;;;;;5047187;28;20528;-76
2022/08/20 05:16:56;;;;;;;12.88;3.42;;;;;;;;;;5045815;28;20025;-76
2022/08/20 05:19:22;;;;;;;8.10;2.65;;;;;;;;;;5043161;28;20116;-76
2022/08/20 05:21:47;;;;;;;10.02;2.78;;;;;;;;;;5046801;28;20488;-76
2022/08/20 05:24:12;;;;;;;14.02;3.13;;;;;;;;;;5044768;28;20388;-76
2022/08/20 05:26:38;;;;;;;10.18;3.35;;;;;;;;;;5052991;28;20051;-76
2022/08/20 05:29:05;;;;;;;14.30;3.42;;;;;;;;;;5041198;28;20044;-75
2022/08/20 05:31:32;;;;;;;10.82;2.70;;;;;;;;;;5054722;28;20103;-75
2022/08/20 05:33:57;;;;;;;9.60;2.75;;;;;;;;;;5044876;28;20024;-75
2022/08/20 05:36:22;;;;;;;7.25;2.80;;;;;;;;;;5051766;28;20095;-76
2022/08/20 05:38:48;;;;;;;6.20;2.28;;;;;;;;;;5049082;28;20029;-76
2022/08/20 05:41:13;;;;;;;9.43;2.35;;;;;;;;;;5050816;28;20369;-76
2022/08/20 05:43:39;;;;;;;13.10;2.40;;;;;;;;;;5041604;28;20025;-77
2022/08/20 05:46:04;;;;;;;11.10;2.47;;;;;;;;;;5043937;28;20527;-77
2022/08/20 05:48:29;;;;;;;5.90;2.60;;;;;;;;;;5048738;28;20028;-78
2022/08/20 05:50:55;;;;;;;13.90;2.45;;;;;;;;;;5050186;28;20045;-78
2022/08/20 05:53:22;;;;;;;12.40;2.92;;;;;;;;;;5048158;28;20025;-78
2022/08/20 05:55:48;;;;;;;8.55;2.50;;;;;;;;;;5037827;28;20033;-78
2022/08/20 05:58:20;;;;;;;12.77;2.67;;;;;;;;;;5032495;28;20108;-79
2022/08/20 06:00:45;;;;;;;8.75;1.83;;;;;;;;;;5035332;28;20033;-80
2022/08/20 06:05:54;;;;;;;8.70;2.03;;;;;;;;;;5049674;28;20086;-81
2022/08/20 06:08:19;;;;;;;9.55;2.40;;;;;;;;;;5046082;28;20594;-81
2022/08/20 06:10:45;;;;;;;7.30;1.52;;;;;;;;;;5044461;28;20040;-78
2022/08/20 06:13:10;;;;;;;8.77;1.60;;;;;;;;;;5039600;28;20026;-80
2022/08/20 06:15:36;;;;;;;6.55;1.77;;;;;;;;;;5043945;28;20092;-82
2022/08/20 06:18:06;;;;;;;11.57;1.83;;;;;;;;;;5043178;28;20040;-78
2022/08/20 06:20:32;;;;;;;58.13;3.58;;;;;;;;;;5038815;28;20032;-82
2022/08/20 06:22:57;;;;;;;8.18;1.42;;;;;;;;;;5038334;28;20405;-82
2022/08/20 06:25:22;;;;;;;4.50;1.40;;;;;;;;;;5049674;28;20392;-78
2022/08/20 06:27:48;;;;;;;6.30;1.58;;;;;;;;;;5037868;28;20033;-78
2022/08/20 06:30:14;;;;;;;4.35;1.35;;;;;;;;;;5042043;28;20483;-82
2022/08/20 06:32:39;;;;;;;5.75;1.45;;;;;;;;;;5045542;28;20030;-78
2022/08/20 06:35:06;;;;;;;2.75;1.10;;;;;;;;;;5045943;28;20031;-79
2022/08/20 06:37:35;;;;;;;6.78;1.60;;;;;;;;;;5053499;28;20036;-81
2022/08/20 06:40:05;;;;;;;8.05;1.75;;;;;;;;;;5032771;28;20036;-78
2022/08/20 06:42:31;;;;;;;7.95;1.27;;;;;;;;;;5047453;28;20495;-83
2022/08/20 06:44:58;;;;;;;6.15;1.45;;;;;;;;;;5048977;28;20033;-80
2022/08/20 06:47:23;;;;;;;7.30;1.85;;;;;;;;;;5045455;28;20040;-78
2022/08/20 06:49:48;;;;;;;7.20;1.70;;;;;;;;;;5044823;28;20396;-83
2022/08/20 06:52:16;;;;;;;6.07;1.80;;;;;;;;;;5044745;28;20079;-79
2022/08/20 06:54:44;;;;;;;6.07;1.60;;;;;;;;;;5041581;28;20064;-85
2022/08/20 06:57:10;;;;;;;5.82;1.77;;;;;;;;;;5039464;28;20028;-80
2022/08/20 06:59:35;;;;;;;11.07;2.63;;;;;;;;;;5043197;28;20392;-80
2022/08/20 07:02:00;;;;;;;17.15;2.30;;;;;;;;;;5045815;28;20037;-82
2022/08/20 07:04:26;;;;;;;13.05;2.60;;;;;;;;;;5043220;28;20028;-82
2022/08/20 07:06:52;;;;;;;6.28;1.90;;;;;;;;;;5043162;28;20037;-82
2022/08/20 07:09:18;;;;;;;10.43;2.38;;;;;;;;;;5044112;28;20037;-78
2022/08/20 07:11:43;;;;;;;12.70;2.28;;;;;;;;;;5046943;28;20020;-80
2022/08/20 07:14:09;;;;;;;12.20;2.25;;;;;;;;;;5048162;28;20029;-79
2022/08/20 07:16:35;;;;;;;11.32;2.00;;;;;;;;;;5024518;28;20041;-80
2022/08/20 07:19:00;;;;;;;14.98;2.38;;;;;;;;;;5040181;28;20026;-83
2022/08/20 07:21:25;;;;;;;17.70;2.85;;;;;;;;;;5033012;28;20096;-80
2022/08/20 07:23:51;;;;;;;12.35;2.28;;;;;;;;;;5042980;28;20053;-80
2022/08/20 07:26:17;;;;;;;12.60;2.83;;;;;;;;;;5044777;28;20017;-80
2022/08/20 07:28:42;;;;;;;11.10;2.88;;;;;;;;;;5033989;28;20056;-79
2022/08/20 07:33:51;;;;;;;6.47;1.80;;;;;;;;;;5036851;28;20044;-79
2022/08/20 07:36:18;;;;;;;14.27;2.67;;;;;;;;;;5044239;28;20464;-79
2022/08/20 07:38:47;;;;;;;11.90;2.25;;;;;;;;;;5039209;28;20064;-80
2022/08/20 07:41:13;;;;;;;11.20;2.33;;;;;;;;;;5043246;28;20461;-79
2022/08/20 07:43:39;;;;;;;9.93;2.20;;;;;;;;;;5044844;28;20032;-81
2022/08/20 07:46:07;;;;;;;13.25;2.30;;;;;;;;;;5041839;28;20105;-82
2022/08/20 07:48:33;;;;;;;12.02;2.33;;;;;;;;;;5034599;28;20477;-80
2022/08/20 07:51:00;;;;;;;9.90;2.65;;;;;;;;;;5043093;28;20072;-85
2022/08/20 07:53:26;;;;;;;10.88;2.67;;;;;;;;;;5046823;28;20436;-84
2022/08/20 07:55:52;;;;;;;11.38;2.22;;;;;;;;;;5039087;28;20053;-83
2022/08/20 07:58:18;;;;;;;13.57;2.17;;;;;;;;;;5046971;28;20036;-81
2022/08/20 08:00:43;;;;;;;8.50;1.80;;;;;;;;;;5036170;28;20469;-81
2022/08/20 08:03:09;;;;;;;9.95;2.30;;;;;;;;;;5050804;28;20020;-79
2022/08/20 08:05:37;;;;;;;8.80;1.98;;;;;;;;;;5046247;28;20056;-78
2022/08/20 08:08:02;;;;;;;9.50;1.98;;;;;;;;;;5039803;28;20091;-78
2022/08/20 08:10:28;;;;;;;13.18;2.25;;;;;;;;;;5037278;28;20048;-78
2022/08/20 08:13:01;;;;;;;15.27;2.25;;;;;;;;;;5024417;28;20025;-78
2022/08/20 08:15:30;;;;;;;7.93;2.03;;;;;;;;;;5044609;28;20024;-78
2022/08/20 08:17:57;;;;;;;19.85;3.35;;;;;;;;;;5036028;28;20037;-78
2022/08/20 08:20:23;;;;;;;11.30;2.08;;;;;;;;;;5043768;28;20465;-78
2022/08/20 08:22:49;;;;;;;9.73;2.03;;;;;;;;;;5040854;28;20052;-79
2022/08/20 08:25:15;;;;;;;11.13;2.47;;;;;;;;;;5032563;28;20028;-78
2022/08/20 08:27:40;;;;;;;8.45;2.03;;;;;;;;;;5040773;28;20029;-84
2022/08/20 08:30:07;;;;;;;7.18;1.60;;;;;;;;;;5043230;28;20029;-81
2022/08/20 08:32:34;;;;;;;13.07;1.92;;;;;;;;;;5031843;28;20037;-84
2022/08/20 08:35:03;;;;;;;10.52;2.08;;;;;;;;;;5032676;28;20103;-79
2022/08/20 08:37:28;;;;;;;8.75;2.00;;;;;;;;;;5030912;28;20018;-79
2022/08/20 08:39:54;;;;;;;9.68;2.17;;;;;;;;;;5035747;28;20101;-79
2022/08/20 08:42:28;;;;;;;10.23;1.92;;;;;;;;;;5032471;28;20025;-79
2022/08/20 08:44:53;;;;;;;6.95;2.13;;;;;;;;;;5037571;28;20484;-79
2022/08/20 08:47:24;;;;;;;6.70;1.50;;;;;;;;;;5038610;28;20083;-81
2022/08/20 08:49:49;;;;;;;7.18;1.90;;;;;;;;;;5029061;28;20049;-79
2022/08/20 08:52:18;;;;;;;8.45;1.67;;;;;;;;;;5041706;28;20051;-81
2022/08/20 08:54:47;;;;;;;9.07;2.30;;;;;;;;;;5041663;28;20065;-82
2022/08/20 08:57:13;;;;;;;10.35;2.10;;;;;;;;;;5037875;28;20052;-81
2022/08/20 08:59:39;;;;;;;5.85;2.05;;;;;;;;;;5036351;28;20430;-78
2022/08/20 09:02:05;;;;;;;8.25;2.05;;;;;;;;;;5045870;28;20038;-79
2022/08/20 09:04:36;;;;;;;11.40;2.55;;;;;;;;;;5046462;28;20031;-78
2022/08/20 09:07:03;;;;;;;7.82;2.40;;;;;;;;;;5046437;28;20040;-79
2022/08/20 09:09:31;;;;;;;6.57;1.83;;;;;;;;;;5042313;28;20051;-81
2022/08/20 09:12:02;;;;;;;9.52;1.95;;;;;;;;;;5036357;28;20473;-80
2022/08/20 09:14:27;;;;;;;9.02;2.15;;;;;;;;;;5045006;28;20030;-81
2022/08/20 09:16:52;;;;;;;8.90;2.00;;;;;;;;;;5045303;28;20091;-78
2022/08/20 09:19:18;;;;;;;10.43;2.17;;;;;;;;;;5044160;28;20048;-79
2022/08/20 09:21:43;;;;;;;9.88;2.17;;;;;;;;;;5047961;28;20037;-78
2022/08/20 09:24:08;;;;;;;13.38;2.20;;;;;;;;;;5038155;28;20053;-79
2022/08/20 09:26:34;;;;;;;6.28;1.60;;;;;;;;;;5037772;28;20099;-79
2022/08/20 09:28:59;;;;;;;11.52;2.10;;;;;;;;;;5047762;28;20033;-79
2022/08/20 09:31:24;;;;;;;5.60;1.60;;;;;;;;;;5055323;28;20048;-78
2022/08/20 09:33:50;;;;;;;9.82;1.80;;;;;;;;;;5051067;28;20028;-79
2022/08/20 09:36:15;;;;;;;7.03;1.75;;;;;;;;;;5036497;28;21276;-79
2022/08/20 09:38:41;;;;;;;7.35;2.03;;;;;;;;;;5043568;28;20033;-79
2022/08/20 09:41:06;;;;;;;4.72;1.55;;;;;;;;;;5038815;28;20017;-79
2022/08/20 09:43:32;;;;;;;7.45;1.70;;;;;;;;;;5039552;28;20033;-80
2022/08/20 09:45:57;;;;;;;8.18;1.90;;;;;;;;;;5033249;28;20043;-79
2022/08/20 09:48:22;;;;;;;8.93;2.00;;;;;;;;;;5044678;28;20031;-81
2022/08/20 09:50:48;;;;;;;7.50;1.92;;;;;;;;;;5048092;28;20037;-80
2022/08/20 09:53:14;;;;;;;7.45;1.90;;;;;;;;;;5038564;28;20452;-80
2022/08/20 09:55:41;;;;;;;8.68;2.15;;;;;;;;;;5053166;28;20036;-80
2022/08/20 09:58:09;;;;;;;7.57;2.00;;;;;;;;;;5039508;28;20436;-79
2022/08/20 10:00:34;;;;;;;6.13;2.45;;;;;;;;;;5040567;28;20068;-80
2022/08/20 10:03:00;;;;;;;8.13;2.45;;;;;;;;;;5035681;28;20026;-80
2022/08/20 10:05:26;;;;;;;9.52;2.13;;;;;;;;;;5042627;28;20432;-79
2022/08/20 10:07:51;;;;;;;8.73;2.47;;;;;;;;;;5043461;28;20056;-79
2022/08/20 10:10:17;;;;;;;11.80;2.80;;;;;;;;;;5037083;28;20068;-80
2022/08/20 10:12:42;;;;;;;11.77;2.53;;;;;;;;;;5049156;28;20036;-80
2022/08/20 10:15:08;;;;;;;8.27;2.10;;;;;;;;;;5046934;28;20029;-80
2022/08/20 10:17:38;;;;;;;5.10;1.80;;;;;;;;;;5036768;28;20036;-80
2022/08/20 10:20:04;;;;;;;6.07;1.85;;;;;;;;;;5047295;28;20040;-79
2022/08/20 10:22:31;;;;;;;5.85;1.70;;;;;;;;;;5047213;28;20052;-79
2022/08/20 10:24:56;;;;;;;9.63;1.90;;;;;;;;;;5036865;28;20050;-80
2022/08/20 10:27:22;;;;;;;10.10;2.35;;;;;;;;;;5040357;28;20052;-79
2022/08/20 10:29:47;;;;;;;8.52;2.20;;;;;;;;;;5035653;28;20431;-80
2022/08/20 10:32:14;;;;;;;12.02;2.42;;;;;;;;;;5041149;28;20039;-79
2022/08/20 10:34:41;;;;;;;12.43;2.40;;;;;;;;;;5050862;28;20148;-80
2022/08/20 10:37:07;;;;;;;8.02;2.30;;;;;;;;;;5054250;28;20025;-79
2022/08/20 10:39:32;;;;;;;10.82;3.20;;;;;;;;;;5051311;28;20032;-79
2022/08/20 10:41:58;;;;;;;12.65;3.15;;;;;;;;;;5039911;28;20385;-79
2022/08/20 10:44:23;;;;;;;13.05;3.85;;;;;;;;;;5039866;28;20114;-79
2022/08/20 10:46:48;;;;;;;9.85;2.90;;;;;;;;;;5042866;28;20111;-79
2022/08/20 10:49:13;;;;;;;12.93;3.17;;;;;;;;;;5049842;28;20469;-79
2022/08/20 10:51:39;;;;;;;12.20;4.07;;;;;;;;;;5052189;28;20045;-79
2022/08/20 10:54:04;;;;;;;9.10;2.60;;;;;;;;;;5042429;28;20029;-79
2022/08/20 10:56:29;;;;;;;12.00;3.17;;;;;;;;;;5046016;28;20506;-79
2022/08/20 10:58:55;;;;;;;11.57;2.20;;;;;;;;;;5040068;28;20033;-78
2022/08/20 11:01:20;;;;;;;8.13;2.38;;;;;;;;;;5046861;28;20017;-78
2022/08/20 11:03:45;;;;;;;9.95;1.95;;;;;;;;;;5021169;28;20053;-79
2022/08/20 11:06:11;;;;;;;12.38;2.65;;;;;;;;;;5037170;28;20031;-79
2022/08/20 11:08:36;;;;;;;6.65;2.20;;;;;;;;;;5048199;28;20032;-79
2022/08/20 11:11:02;;;;;;;7.72;2.20;;;;;;;;;;5045006;28;20052;-79
2022/08/20 11:13:27;;;;;;;7.72;1.95;;;;;;;;;;5034774;28;20099;-80
2022/08/20 11:15:53;;;;;;;9.57;2.15;;;;;;;;;;5039670;28;20457;-80
2022/08/20 11:18:18;;;;;;;8.55;2.00;;;;;;;;;;5034486;28;20029;-80
2022/08/20 11:20:43;;;;;;;10.77;2.88;;;;;;;;;;5041397;28;20067;-80
2022/08/20 11:23:09;;;;;;;6.35;2.20;;;;;;;;;;5039576;28;20098;-81
2022/08/20 11:25:34;;;;;;;11.35;2.50;;;;;;;;;;5036089;28;20036;-80
2022/08/20 11:27:59;;;;;;;10.52;2.53;;;;;;;;;;5040034;28;20471;-80
2022/08/20 11:30:29;;;;;;;10.55;2.60;;;;;;;;;;5045800;28;20037;-81
2022/08/20 11:32:55;;;;;;;10.55;2.50;;;;;;;;;;5036627;28;20099;-81
2022/08/20 11:35:22;;;;;;;10.20;2.40;;;;;;;;;;5036356;28;20156;-82
2022/08/20 11:37:48;;;;;;;7.82;2.40;;;;;;;;;;5038576;28;20097;-82
2022/08/20 11:40:14;;;;;;;9.35;2.53;;;;;;;;;;5037168;28;20109;-81
2022/08/20 11:42:39;;;;;;;9.07;2.55;;;;;;;;;;5033973;28;20025;-82
2022/08/20 11:45:05;;;;;;;8.20;2.42;;;;;;;;;;5039802;28;20127;-82
2022/08/20 11:47:32;;;;;;;11.10;2.38;;;;;;;;;;5046171;28;20480;-83
2022/08/20 11:50:17;;;;;;;11.63;2.75;;;;;;;;;;5037206;28;20044;-82
2022/08/20 11:52:42;;;;;;;9.52;2.40;;;;;;;;;;5037890;28;20030;-82
2022/08/20 11:55:10;;;;;;;13.48;3.17;;;;;;;;;;5036638;28;20854;-82
2022/08/20 11:57:36;;;;;;;8.50;2.40;;;;;;;;;;5034266;28;20079;-82
2022/08/20 12:00:04;;;;;;;8.30;2.10;;;;;;;;;;5048062;28;20397;-81
2022/08/20 12:02:29;;;;;;;8.90;2.17;;;;;;;;;;5037823;28;20055;-82
2022/08/20 12:04:55;;;;;;;10.38;2.00;;;;;;;;;;5035069;28;20372;-83
2022/08/20 12:07:21;;;;;;;9.95;2.40;;;;;;;;;;5043821;28;20083;-83
2022/08/20 12:09:47;;;;;;;13.15;2.53;;;;;;;;;;5049042;28;20419;-83
2022/08/20 12:12:12;;;;;;;8.77;2.72;;;;;;;;;;5040739;28;20021;-84
2022/08/20 12:14:38;;;;;;;11.70;2.50;;;;;;;;;;5031363;28;20020;-84
2022/08/20 12:17:10;;;;;;;10.82;2.35;;;;;;;;;;5037623;28;20400;-84
2022/08/20 12:19:36;;;;;;;8.07;1.90;;;;;;;;;;5035900;28;20029;-84
2022/08/20 12:22:01;;;;;;;9.90;2.42;;;;;;;;;;5034966;28;20036;-86
2022/08/20 12:24:27;;;;;;;10.45;2.15;;;;;;;;;;5037201;28;20412;-84
2022/08/20 12:26:52;;;;;;;12.60;2.33;;;;;;;;;;5035243;28;20057;-86
2022/08/20 12:29:18;;;;;;;14.40;3.08;;;;;;;;;;5036968;28;20025;-86
2022/08/20 12:31:43;;;;;;;19.92;2.85;;;;;;;;;;5042729;28;20048;-86
2022/08/20 12:34:08;;;;;;;11.60;2.40;;;;;;;;;;5036904;28;20112;-87
2022/08/20 12:36:34;;;;;;;8.50;2.53;;;;;;;;;;5044340;28;20037;-85
2022/08/20 12:38:59;;;;;;;12.05;2.63;;;;;;;;;;5048770;28;20112;-88
2022/08/20 12:41:24;;;;;;;7.28;2.20;;;;;;;;;;5038416;28;20041;-88
2022/08/20 12:43:50;;;;;;;7.95;2.25;;;;;;;;;;5041448;28;20096;-87
2022/08/20 12:46:15;;;;;;;7.45;2.65;;;;;;;;;;5045163;28;20037;-88
2022/08/20 12:48:40;;;;;;;11.93;2.60;;;;;;;;;;5045062;28;20079;-83
2022/08/20 12:51:05;;;;;;;6.75;1.85;;;;;;;;;;5039966;28;20049;-82
2022/08/20 12:53:31;;;;;;;10.02;2.40;;;;;;;;;;5036341;28;20025;-83
2022/08/20 12:55:56;;;;;;;10.93;2.15;;;;;;;;;;5036339;28;20024;-83
2022/08/20 12:58:21;;;;;;;10.35;2.30;;;;;;;;;;5042176;28;20021;-83
2022/08/20 13:00:47;;;;;;;9.77;2.20;;;;;;;;;;5037200;28;20034;-82
2022/08/20 13:03:12;;;;;;;11.50;2.53;;;;;;;;;;5035147;28;20428;-82
2022/08/20 13:05:38;;;;;;;16.05;2.67;;;;;;;;;;5039292;28;20152;-82
2022/08/20 13:08:10;;;;;;;7.93;2.15;;;;;;;;;;5037673;28;20103;-81
2022/08/20 13:10:41;;;;;;;7.93;2.38;;;;;;;;;;5046260;28;20035;-80
2022/08/20 13:13:06;;;;;;;5.63;2.10;;;;;;;;;;5049775;28;20488;-81
2022/08/20 13:15:32;;;;;;;10.55;2.08;;;;;;;;;;5039016;28;20044;-80
2022/08/20 13:17:58;;;;;;;8.52;2.10;;;;;;;;;;5034591;28;20064;-80
2022/08/20 13:20:25;;;;;;;8.63;2.33;;;;;;;;;;5035998;28;20037;-80
2022/08/20 13:22:51;;;;;;;9.80;2.15;;;;;;;;;;5030714;28;20064;-80
2022/08/20 13:25:16;;;;;;;13.10;2.03;;;;;;;;;;5036562;28;20025;-80
2022/08/20 13:27:42;;;;;;;11.02;2.20;;;;;;;;;;5038895;28;20446;-80
2022/08/20 13:30:08;;;;;;;7.70;2.00;;;;;;;;;;5035527;28;20048;-80
2022/08/20 13:32:34;;;;;;;9.57;2.28;;;;;;;;;;5041792;28;20029;-80
2022/08/20 13:34:59;;;;;;;7.88;1.92;;;;;;;;;;5046080;28;20369;-81
2022/08/20 13:37:25;;;;;;;6.05;1.90;;;;;;;;;;5042066;28;20025;-80
2022/08/20 13:39:51;;;;;;;5.80;1.80;;;;;;;;;;5043459;28;20132;-81
2022/08/20 13:42:16;;;;;;;6.18;1.80;;;;;;;;;;5040763;28;20501;-82
2022/08/20 13:44:41;;;;;;;8.45;2.15;;;;;;;;;;5037942;28;20025;-83
2022/08/20 13:47:13;;;;;;;8.27;1.95;;;;;;;;;;5039258;28;20078;-83
2022/08/20 13:49:39;;;;;;;5.43;1.80;;;;;;;;;;5055192;28;20040;-83
2022/08/20 13:52:04;;;;;;;7.47;1.90;;;;;;;;;;5052879;28;20029;-83
2022/08/20 13:54:29;;;;;;;9.23;1.90;;;;;;;;;;5039634;28;20049;-84
2022/08/20 13:57:02;;;;;;;8.95;2.10;;;;;;;;;;5049829;28;20072;-85
2022/08/20 13:59:28;;;;;;;7.68;1.85;;;;;;;;;;5044107;28;20026;-84
2022/08/20 14:01:53;;;;;;;7.68;2.33;;;;;;;;;;5045041;28;20021;-85
2022/08/20 14:04:18;;;;;;;8.27;1.92;;;;;;;;;;5041839;28;20056;-85
2022/08/20 14:06:43;;;;;;;8.95;2.45;;;;;;;;;;5044932;28;20041;-86
2022/08/20 14:09:09;;;;;;;6.75;2.03;;;;;;;;;;5048128;28;20466;-85
2022/08/20 14:11:34;;;;;;;9.40;1.90;;;;;;;;;;5041271;28;20045;-82
2022/08/20 14:13:59;;;;;;;6.28;1.88;;;;;;;;;;5043009;28;20029;-86
2022/08/20 14:16:24;;;;;;;9.18;2.00;;;;;;;;;;5044932;28;20453;-83
2022/08/20 14:18:50;;;;;;;7.68;1.90;;;;;;;;;;5038415;28;20037;-86
2022/08/20 14:21:15;;;;;;;10.98;2.25;;;;;;;;;;5039673;28;20127;-86
2022/08/20 14:23:42;;;;;;;5.18;1.70;;;;;;;;;;5037607;28;20041;-80
2022/08/20 14:26:08;;;;;;;6.53;1.80;;;;;;;;;;5046377;28;20468;-81
2022/08/20 14:28:33;;;;;;;5.63;1.75;;;;;;;;;;5037803;28;20041;-80
2022/08/20 14:30:58;;;;;;;7.20;1.80;;;;;;;;;;5048803;28;20396;-80
2022/08/20 14:33:23;;;;;;;5.47;1.70;;;;;;;;;;5039401;28;20034;-80
2022/08/20 14:35:49;;;;;;;9.50;1.70;;;;;;;;;;5052028;28;20033;-81
2022/08/20 14:38:14;;;;;;;4.03;1.63;;;;;;;;;;5052368;28;20017;-80
2022/08/20 14:40:40;;;;;;;5.45;2.13;;;;;;;;;;5050299;28;20041;-81